Time;durP1;ratioP1;P1;durP2;ratioP2;P2;SDS_P1;SDS_P2;PMS_P1;PMS_P2;Temp;Humidity;BMP_temperature;BMP_pressure;BME280_temperature;BME280_humidity;BME280_pressure;Samples;Min_cycle;Max_cycle;Signal;HPM_P1;HPM_P2
2021/05/13 00:00:44;;;;;;;3.07;1.60;;;;;;;;;;4963502;28;20516;-77
2021/05/13 00:03:10;;;;;;;3.30;1.20;;;;;;;;;;4974246;28;20451;-78
2021/05/13 00:05:36;;;;;;;4.57;1.97;;;;;;;;;;4960432;28;21004;-78
2021/05/13 00:08:03;;;;;;;1.20;1.10;;;;;;;;;;4973173;28;20446;-79
2021/05/13 00:10:29;;;;;;;3.60;1.43;;;;;;;;;;4963124;28;20490;-77
2021/05/13 00:12:58;;;;;;;1.10;1.00;;;;;;;;;;4965774;28;20467;-77
2021/05/13 00:15:26;;;;;;;1.50;1.40;;;;;;;;;;4964990;28;20468;-77
2021/05/13 00:17:52;;;;;;;1.73;1.57;;;;;;;;;;4948762;28;20439;-78
2021/05/13 00:20:23;;;;;;;1.97;1.47;;;;;;;;;;4970339;28;20473;-78
2021/05/13 00:22:49;;;;;;;2.47;1.53;;;;;;;;;;4974287;28;20447;-78
2021/05/13 00:25:15;;;;;;;2.87;2.40;;;;;;;;;;4972415;28;20452;-77
2021/05/13 00:27:41;;;;;;;2.50;1.43;;;;;;;;;;4973794;28;20445;-77
2021/05/13 00:30:08;;;;;;;2.73;0.90;;;;;;;;;;4984648;28;20464;-78
2021/05/13 00:32:38;;;;;;;1.50;1.30;;;;;;;;;;4962865;28;20455;-78
2021/05/13 00:35:07;;;;;;;1.70;1.60;;;;;;;;;;4974106;28;20446;-77
2021/05/13 00:37:33;;;;;;;2.00;1.10;;;;;;;;;;4972685;28;20807;-77
2021/05/13 00:40:00;;;;;;;5.17;1.30;;;;;;;;;;4978552;28;20450;-77
2021/05/13 00:42:26;;;;;;;1.93;1.27;;;;;;;;;;4965871;28;20432;-77
2021/05/13 00:44:55;;;;;;;4.53;1.40;;;;;;;;;;4968966;28;20498;-77
2021/05/13 00:47:23;;;;;;;1.20;1.10;;;;;;;;;;4967872;28;20467;-77
2021/05/13 00:49:50;;;;;;;2.50;1.23;;;;;;;;;;4962031;28;20802;-77
2021/05/13 00:52:18;;;;;;;1.90;1.60;;;;;;;;;;4953287;29;20880;-77
2021/05/13 00:54:44;;;;;;;2.10;1.07;;;;;;;;;;4964216;28;20481;-78
2021/05/13 00:57:11;;;;;;;2.50;1.37;;;;;;;;;;4979869;28;20476;-77
2021/05/13 00:59:39;;;;;;;1.93;1.53;;;;;;;;;;4971647;28;20455;-78
2021/05/13 01:02:05;;;;;;;1.70;1.37;;;;;;;;;;4961963;28;20824;-78
2021/05/13 01:04:31;;;;;;;2.00;1.30;;;;;;;;;;4958984;28;20517;-78
2021/05/13 01:06:58;;;;;;;2.83;1.40;;;;;;;;;;4966166;28;20449;-78
2021/05/13 01:09:26;;;;;;;1.37;0.97;;;;;;;;;;4977980;28;20985;-78
2021/05/13 01:12:03;;;;;;;1.73;1.00;;;;;;;;;;4952317;28;20494;-77
2021/05/13 01:19:33;;;;;;;7.00;1.10;;;;;;;;;;4955920;28;20494;-78
2021/05/13 01:21:59;;;;;;;1.57;1.20;;;;;;;;;;4963425;28;20458;-77
2021/05/13 01:24:25;;;;;;;1.40;1.17;;;;;;;;;;4978056;28;20436;-78
2021/05/13 01:26:51;;;;;;;2.23;1.67;;;;;;;;;;4959886;28;20454;-78
2021/05/13 01:29:21;;;;;;;2.30;1.50;;;;;;;;;;4957775;28;20470;-77
2021/05/13 01:31:50;;;;;;;1.60;1.20;;;;;;;;;;4961070;28;20478;-77
2021/05/13 01:34:16;;;;;;;3.17;1.40;;;;;;;;;;4957533;28;20538;-77
2021/05/13 01:36:42;;;;;;;1.57;1.30;;;;;;;;;;4962095;28;20465;-78
2021/05/13 01:39:10;;;;;;;1.17;1.07;;;;;;;;;;4961920;28;20454;-77
2021/05/13 01:41:36;;;;;;;3.27;1.97;;;;;;;;;;4976483;28;20466;-78
2021/05/13 01:44:02;;;;;;;1.50;1.20;;;;;;;;;;4948541;28;20439;-77
2021/05/13 01:46:28;;;;;;;2.00;1.60;;;;;;;;;;4953042;28;20438;-77
2021/05/13 01:48:54;;;;;;;2.07;1.50;;;;;;;;;;4969841;28;20441;-78
2021/05/13 01:51:20;;;;;;;1.30;1.20;;;;;;;;;;4955231;28;20855;-77
2021/05/13 01:53:46;;;;;;;1.90;1.57;;;;;;;;;;4955480;28;20438;-77
2021/05/13 01:56:12;;;;;;;2.30;1.50;;;;;;;;;;4958697;28;21032;-78
2021/05/13 01:58:38;;;;;;;1.63;1.20;;;;;;;;;;4967698;28;20465;-78
2021/05/13 02:01:05;;;;;;;1.37;1.23;;;;;;;;;;4964812;28;20468;-77
2021/05/13 02:03:34;;;;;;;1.53;1.27;;;;;;;;;;4968547;28;20442;-77
2021/05/13 02:06:00;;;;;;;2.33;1.67;;;;;;;;;;4956838;28;20848;-78
2021/05/13 02:08:28;;;;;;;1.77;1.30;;;;;;;;;;4959502;28;20466;-78
2021/05/13 02:10:54;;;;;;;3.13;1.33;;;;;;;;;;4967633;28;20512;-78
2021/05/13 02:13:20;;;;;;;2.00;1.47;;;;;;;;;;4966591;28;20445;-78
2021/05/13 02:15:46;;;;;;;2.03;1.73;;;;;;;;;;4964687;28;21015;-77
2021/05/13 02:18:12;;;;;;;1.60;1.30;;;;;;;;;;4972715;28;20515;-77
2021/05/13 02:20:38;;;;;;;1.50;1.40;;;;;;;;;;4955045;28;20517;-78
2021/05/13 02:23:04;;;;;;;0.93;0.93;;;;;;;;;;4969079;28;20458;-78
2021/05/13 02:25:33;;;;;;;1.40;1.10;;;;;;;;;;4967056;28;20454;-77
2021/05/13 02:28:02;;;;;;;1.37;1.13;;;;;;;;;;4968618;28;20526;-78
2021/05/13 02:30:29;;;;;;;2.47;1.47;;;;;;;;;;4956918;28;20478;-77
2021/05/13 02:32:55;;;;;;;1.93;1.07;;;;;;;;;;4963499;28;20983;-77
2021/05/13 02:35:21;;;;;;;4.20;1.00;;;;;;;;;;4968474;28;20445;-77
2021/05/13 02:37:48;;;;;;;2.07;1.43;;;;;;;;;;4971314;28;20955;-78
2021/05/13 02:40:17;;;;;;;1.73;1.40;;;;;;;;;;4965633;28;20481;-78
2021/05/13 02:42:44;;;;;;;1.17;1.07;;;;;;;;;;4975495;28;20443;-78
2021/05/13 02:45:11;;;;;;;1.33;1.23;;;;;;;;;;4963337;28;20516;-77
2021/05/13 02:47:37;;;;;;;1.53;1.20;;;;;;;;;;4967396;28;20438;-78
2021/05/13 02:50:04;;;;;;;1.30;1.20;;;;;;;;;;4969287;28;20430;-77
2021/05/13 02:52:30;;;;;;;4.10;2.10;;;;;;;;;;4970928;28;20528;-78
2021/05/13 02:54:56;;;;;;;1.70;1.27;;;;;;;;;;4963659;28;20524;-78
2021/05/13 02:57:22;;;;;;;3.30;1.47;;;;;;;;;;4968516;28;20561;-79
2021/05/13 02:59:52;;;;;;;1.80;1.70;;;;;;;;;;4964557;28;20445;-79
2021/05/13 03:02:19;;;;;;;1.60;1.50;;;;;;;;;;4980350;28;20465;-78
2021/05/13 03:04:45;;;;;;;2.40;1.20;;;;;;;;;;4971143;28;20484;-79
2021/05/13 03:07:12;;;;;;;4.43;1.70;;;;;;;;;;4959987;28;20434;-78
2021/05/13 03:09:41;;;;;;;1.00;0.90;;;;;;;;;;4973357;28;20437;-78
2021/05/13 03:12:08;;;;;;;2.07;1.47;;;;;;;;;;4956250;28;20956;-78
2021/05/13 03:14:34;;;;;;;2.07;1.50;;;;;;;;;;4957250;28;20438;-78
2021/05/13 03:17:01;;;;;;;3.23;1.33;;;;;;;;;;4965825;28;20465;-78
2021/05/13 03:22:12;;;;;;;1.50;1.40;;;;;;;;;;4983084;28;20464;-78
2021/05/13 03:24:50;;;;;;;2.97;1.30;;;;;;;;;;4971074;28;20432;-78
2021/05/13 03:29:52;;;;;;;1.53;1.40;;;;;;;;;;4976352;28;20449;-78
2021/05/13 03:32:18;;;;;;;1.30;1.23;;;;;;;;;;4968191;28;20480;-78
2021/05/13 03:34:44;;;;;;;2.37;1.37;;;;;;;;;;4969268;28;20444;-78
2021/05/13 03:37:10;;;;;;;2.93;1.33;;;;;;;;;;4962693;28;20474;-78
2021/05/13 03:39:36;;;;;;;0.93;0.90;;;;;;;;;;4968599;28;20434;-78
2021/05/13 03:42:02;;;;;;;1.30;1.20;;;;;;;;;;4958642;28;20473;-79
2021/05/13 03:44:28;;;;;;;1.37;1.00;;;;;;;;;;4964179;28;20952;-78
2021/05/13 03:46:56;;;;;;;0.90;0.90;;;;;;;;;;4967328;28;20529;-78
2021/05/13 03:49:22;;;;;;;0.80;0.80;;;;;;;;;;4968378;28;20519;-79
2021/05/13 03:51:48;;;;;;;1.27;1.17;;;;;;;;;;4973217;28;20472;-80
2021/05/13 03:54:14;;;;;;;3.47;0.90;;;;;;;;;;4973837;28;20429;-78
2021/05/13 03:56:40;;;;;;;1.20;1.00;;;;;;;;;;4957360;28;20470;-78
2021/05/13 03:59:14;;;;;;;0.80;0.80;;;;;;;;;;4970404;28;20437;-78
2021/05/13 04:01:48;;;;;;;1.13;0.87;;;;;;;;;;4967929;28;20548;-79
2021/05/13 04:04:14;;;;;;;0.80;0.80;;;;;;;;;;4966260;28;21003;-78
2021/05/13 04:06:40;;;;;;;1.10;1.03;;;;;;;;;;4963082;28;20474;-78
2021/05/13 04:09:10;;;;;;;1.00;0.90;;;;;;;;;;4970680;28;20433;-79
2021/05/13 04:11:39;;;;;;;1.07;0.90;;;;;;;;;;4967160;28;20541;-79
2021/05/13 04:14:06;;;;;;;0.90;0.90;;;;;;;;;;4949656;28;20443;-79
2021/05/13 04:16:35;;;;;;;1.03;0.83;;;;;;;;;;4967587;28;20502;-78
2021/05/13 04:19:01;;;;;;;1.00;0.90;;;;;;;;;;4952551;28;20534;-79
2021/05/13 04:21:28;;;;;;;1.03;0.80;;;;;;;;;;4965571;28;20481;-78
2021/05/13 04:23:54;;;;;;;1.53;0.83;;;;;;;;;;4967750;28;20447;-78
2021/05/13 04:26:20;;;;;;;1.40;0.90;;;;;;;;;;4968649;28;20430;-78
2021/05/13 04:28:46;;;;;;;1.90;0.80;;;;;;;;;;4963834;28;20481;-78
2021/05/13 04:31:12;;;;;;;1.13;1.03;;;;;;;;;;4955431;28;20514;-78
2021/05/13 04:33:38;;;;;;;1.83;1.00;;;;;;;;;;4938393;29;20443;-78
2021/05/13 04:36:04;;;;;;;1.80;1.33;;;;;;;;;;4961892;28;20465;-78
2021/05/13 04:38:31;;;;;;;1.17;1.07;;;;;;;;;;4956698;28;20433;-79
2021/05/13 04:40:57;;;;;;;1.20;1.10;;;;;;;;;;4967575;28;20912;-79
2021/05/13 04:43:23;;;;;;;1.23;1.13;;;;;;;;;;4959996;28;20506;-79
2021/05/13 04:45:50;;;;;;;1.20;1.10;;;;;;;;;;4956901;28;20497;-78
2021/05/13 04:48:19;;;;;;;0.93;0.90;;;;;;;;;;4971014;28;20434;-78
2021/05/13 04:50:45;;;;;;;1.30;1.20;;;;;;;;;;4958956;28;20454;-79
2021/05/13 04:53:11;;;;;;;0.80;0.80;;;;;;;;;;4959343;28;20445;-79
2021/05/13 04:55:38;;;;;;;1.23;1.13;;;;;;;;;;4961180;28;20476;-79
2021/05/13 04:58:05;;;;;;;2.03;1.13;;;;;;;;;;4966546;28;20489;-78
2021/05/13 05:00:31;;;;;;;1.10;1.00;;;;;;;;;;4968956;28;20458;-78
2021/05/13 05:02:57;;;;;;;1.70;1.10;;;;;;;;;;4970014;28;20522;-79
2021/05/13 05:05:24;;;;;;;2.50;1.30;;;;;;;;;;4967106;28;20438;-79
2021/05/13 05:07:50;;;;;;;2.03;1.53;;;;;;;;;;4958449;28;20435;-78
2021/05/13 05:10:18;;;;;;;1.20;1.10;;;;;;;;;;4961423;28;20446;-79
2021/05/13 05:12:44;;;;;;;2.23;1.70;;;;;;;;;;4972032;28;20433;-80
2021/05/13 05:15:11;;;;;;;1.60;1.27;;;;;;;;;;4964019;28;20467;-78
2021/05/13 05:17:37;;;;;;;1.47;1.20;;;;;;;;;;4971155;28;20532;-80
2021/05/13 05:20:04;;;;;;;2.40;1.50;;;;;;;;;;4978476;28;20445;-79
2021/05/13 05:22:30;;;;;;;1.60;1.50;;;;;;;;;;4966532;28;20939;-78
2021/05/13 05:24:56;;;;;;;3.93;2.67;;;;;;;;;;4971097;28;20532;-78
2021/05/13 05:27:22;;;;;;;2.23;1.97;;;;;;;;;;4949888;28;20637;-77
2021/05/13 05:29:48;;;;;;;7.70;3.43;;;;;;;;;;4966685;28;20450;-77
2021/05/13 05:32:14;;;;;;;4.13;2.20;;;;;;;;;;4966949;28;20990;-78
2021/05/13 05:34:40;;;;;;;4.20;3.37;;;;;;;;;;4978825;28;21105;-78
2021/05/13 05:37:07;;;;;;;4.47;3.10;;;;;;;;;;4970716;28;20475;-77
2021/05/13 05:39:33;;;;;;;3.80;3.50;;;;;;;;;;4961492;28;20447;-77
2021/05/13 05:42:01;;;;;;;4.90;3.40;;;;;;;;;;4964120;28;20533;-77
2021/05/13 05:44:27;;;;;;;3.70;2.60;;;;;;;;;;4972761;28;20444;-78
2021/05/13 05:46:55;;;;;;;7.70;3.40;;;;;;;;;;4960215;28;20443;-77
2021/05/13 05:49:21;;;;;;;3.20;2.90;;;;;;;;;;4969148;28;20477;-77
2021/05/13 05:51:47;;;;;;;5.03;2.90;;;;;;;;;;4969870;28;20449;-77
2021/05/13 05:54:13;;;;;;;4.47;2.87;;;;;;;;;;4976727;28;20475;-78
2021/05/13 05:56:39;;;;;;;3.27;2.67;;;;;;;;;;4957027;28;20510;-77
2021/05/13 05:59:07;;;;;;;5.03;3.00;;;;;;;;;;4971490;28;20438;-77
2021/05/13 06:01:35;;;;;;;3.00;2.70;;;;;;;;;;4963485;28;20455;-77
2021/05/13 06:04:01;;;;;;;4.37;3.23;;;;;;;;;;4966241;28;20425;-77
2021/05/13 06:06:27;;;;;;;2.50;2.00;;;;;;;;;;4971336;28;20496;-76
2021/05/13 06:08:53;;;;;;;3.27;2.70;;;;;;;;;;4970019;28;20802;-77
2021/05/13 06:11:19;;;;;;;6.10;3.87;;;;;;;;;;4961547;28;20469;-77
2021/05/13 06:13:45;;;;;;;4.43;2.90;;;;;;;;;;4973497;28;20816;-77
2021/05/13 06:16:11;;;;;;;4.23;3.10;;;;;;;;;;4975149;28;20461;-77
2021/05/13 06:18:50;;;;;;;3.57;3.13;;;;;;;;;;4967080;28;20429;-76
2021/05/13 06:21:16;;;;;;;4.87;4.47;;;;;;;;;;4972334;28;20461;-78
2021/05/13 06:23:47;;;;;;;3.13;2.60;;;;;;;;;;4968389;28;20512;-76
2021/05/13 06:26:26;;;;;;;6.50;3.13;;;;;;;;;;4965080;28;20434;-79
2021/05/13 06:28:53;;;;;;;3.23;2.53;;;;;;;;;;4966163;28;20418;-77
2021/05/13 06:31:19;;;;;;;5.80;2.57;;;;;;;;;;4949014;28;20565;-76
2021/05/13 06:33:45;;;;;;;3.73;2.77;;;;;;;;;;4966111;28;20444;-77
2021/05/13 06:36:11;;;;;;;2.97;2.60;;;;;;;;;;4970279;28;20461;-77
2021/05/13 06:38:37;;;;;;;5.20;2.97;;;;;;;;;;4974453;28;20430;-77
2021/05/13 06:41:05;;;;;;;10.20;3.13;;;;;;;;;;4966500;28;20831;-77
2021/05/13 06:43:32;;;;;;;4.23;3.07;;;;;;;;;;4973731;28;20445;-77
2021/05/13 06:45:58;;;;;;;5.40;2.13;;;;;;;;;;4967968;28;20438;-76
2021/05/13 06:48:24;;;;;;;5.80;3.30;;;;;;;;;;4972048;28;20442;-77
2021/05/13 06:50:50;;;;;;;4.43;3.30;;;;;;;;;;4965462;28;20461;-77
2021/05/13 06:53:16;;;;;;;2.50;2.30;;;;;;;;;;4973434;28;20473;-76
2021/05/13 06:55:42;;;;;;;3.60;2.97;;;;;;;;;;4975206;28;20466;-77
2021/05/13 06:58:08;;;;;;;3.10;2.40;;;;;;;;;;4967763;28;20593;-76
2021/05/13 07:00:34;;;;;;;5.43;2.90;;;;;;;;;;4963423;28;20995;-75
2021/05/13 07:03:00;;;;;;;7.23;2.40;;;;;;;;;;4972575;28;20846;-76
2021/05/13 07:05:27;;;;;;;2.83;2.10;;;;;;;;;;4965959;28;20441;-75
2021/05/13 07:07:53;;;;;;;4.17;2.00;;;;;;;;;;4972646;28;20442;-76
2021/05/13 07:10:19;;;;;;;3.50;2.40;;;;;;;;;;4964650;28;20429;-77
2021/05/13 07:12:46;;;;;;;3.40;2.47;;;;;;;;;;4960811;28;20533;-75
2021/05/13 07:15:12;;;;;;;1.90;1.67;;;;;;;;;;4965148;28;20439;-75
2021/05/13 07:17:38;;;;;;;3.37;2.00;;;;;;;;;;4969234;28;20452;-76
2021/05/13 07:20:04;;;;;;;3.13;1.90;;;;;;;;;;4964019;28;20517;-76
2021/05/13 07:22:30;;;;;;;2.20;2.00;;;;;;;;;;4970770;28;20445;-75
2021/05/13 07:24:56;;;;;;;3.03;1.60;;;;;;;;;;4967419;28;21121;-77
2021/05/13 07:27:23;;;;;;;3.13;2.30;;;;;;;;;;4974784;28;20523;-77
2021/05/13 07:29:49;;;;;;;2.50;2.10;;;;;;;;;;4956285;28;20463;-76
2021/05/13 07:32:15;;;;;;;1.90;1.70;;;;;;;;;;4966865;28;20476;-78
2021/05/13 07:34:41;;;;;;;2.20;1.97;;;;;;;;;;4961448;28;20434;-76
2021/05/13 07:37:07;;;;;;;3.40;1.97;;;;;;;;;;4967420;28;20824;-76
2021/05/13 07:39:33;;;;;;;2.23;2.03;;;;;;;;;;4963030;28;20803;-77
2021/05/13 07:41:59;;;;;;;2.40;1.83;;;;;;;;;;4967640;28;20948;-78
2021/05/13 07:44:26;;;;;;;1.87;1.70;;;;;;;;;;4967612;28;20446;-76
2021/05/13 07:46:54;;;;;;;1.90;1.80;;;;;;;;;;4967227;28;20501;-76
2021/05/13 07:49:20;;;;;;;1.20;1.00;;;;;;;;;;4975825;28;20472;-75
2021/05/13 07:51:46;;;;;;;3.50;2.10;;;;;;;;;;4972444;28;20476;-76
2021/05/13 07:54:13;;;;;;;1.83;1.50;;;;;;;;;;4969623;28;21275;-76
2021/05/13 07:56:39;;;;;;;2.40;1.83;;;;;;;;;;4964640;28;20470;-77
2021/05/13 07:59:05;;;;;;;3.03;1.87;;;;;;;;;;4959997;28;20440;-76
2021/05/13 08:01:31;;;;;;;3.40;1.60;;;;;;;;;;4965245;28;20477;-77
2021/05/13 08:03:57;;;;;;;2.13;1.30;;;;;;;;;;4958858;28;20437;-77
2021/05/13 08:06:23;;;;;;;2.63;1.70;;;;;;;;;;4975167;28;20476;-77
2021/05/13 08:08:49;;;;;;;3.10;1.57;;;;;;;;;;4988298;28;20459;-78
2021/05/13 08:11:15;;;;;;;4.03;1.90;;;;;;;;;;4963416;28;20458;-76
2021/05/13 08:13:41;;;;;;;3.03;2.00;;;;;;;;;;4981611;28;20468;-76
2021/05/13 08:16:07;;;;;;;1.37;1.27;;;;;;;;;;4981617;28;20497;-76
2021/05/13 08:18:33;;;;;;;3.50;1.60;;;;;;;;;;4963416;28;20442;-75
2021/05/13 08:21:00;;;;;;;3.20;1.53;;;;;;;;;;4977599;28;20457;-76
2021/05/13 08:23:26;;;;;;;2.43;1.60;;;;;;;;;;4961855;28;21003;-76
2021/05/13 08:25:52;;;;;;;2.87;1.30;;;;;;;;;;4970426;28;20477;-76
2021/05/13 08:28:18;;;;;;;2.90;1.63;;;;;;;;;;4975043;28;21030;-77
2021/05/13 08:30:44;;;;;;;2.40;1.77;;;;;;;;;;4960969;28;20530;-76
2021/05/13 08:33:10;;;;;;;2.83;1.27;;;;;;;;;;4968012;28;20439;-76
2021/05/13 08:35:36;;;;;;;2.10;1.10;;;;;;;;;;4965822;28;20994;-77
2021/05/13 08:38:02;;;;;;;1.70;1.23;;;;;;;;;;4959654;28;20521;-77
2021/05/13 08:40:28;;;;;;;2.20;0.70;;;;;;;;;;4966213;28;20558;-77
2021/05/13 08:42:54;;;;;;;2.70;1.30;;;;;;;;;;4964767;28;20445;-76
2021/05/13 08:45:20;;;;;;;1.27;1.17;;;;;;;;;;4959244;28;20437;-80
2021/05/13 08:47:46;;;;;;;1.10;1.00;;;;;;;;;;4960692;28;20438;-78
2021/05/13 08:50:13;;;;;;;3.00;0.80;;;;;;;;;;4955123;28;20441;-76
2021/05/13 08:52:39;;;;;;;1.77;1.20;;;;;;;;;;4960041;28;20442;-77
2021/05/13 08:55:06;;;;;;;1.20;0.90;;;;;;;;;;4965876;28;20430;-77
2021/05/13 08:57:32;;;;;;;1.63;1.10;;;;;;;;;;4978239;28;20600;-78
2021/05/13 08:59:58;;;;;;;0.70;0.70;;;;;;;;;;4955464;28;20430;-75
2021/05/13 09:02:30;;;;;;;1.07;1.00;;;;;;;;;;4957728;28;20456;-76
2021/05/13 09:04:56;;;;;;;1.30;1.17;;;;;;;;;;4974487;28;20464;-76
2021/05/13 09:07:30;;;;;;;3.30;1.23;;;;;;;;;;4966032;28;20847;-77
2021/05/13 09:09:56;;;;;;;1.20;1.00;;;;;;;;;;4978982;28;20885;-76
2021/05/13 09:12:23;;;;;;;1.70;1.13;;;;;;;;;;4968094;28;20516;-75
2021/05/13 09:15:10;;;;;;;0.70;0.67;;;;;;;;;;4973164;28;20564;-76
2021/05/13 09:17:36;;;;;;;0.77;0.77;;;;;;;;;;4963676;28;20527;-76
2021/05/13 09:20:03;;;;;;;1.60;0.87;;;;;;;;;;4974088;28;20454;-75
2021/05/13 09:22:29;;;;;;;1.80;0.87;;;;;;;;;;4972801;28;20437;-76
2021/05/13 09:25:00;;;;;;;1.90;0.80;;;;;;;;;;4958029;28;20445;-76
2021/05/13 09:27:26;;;;;;;1.00;0.80;;;;;;;;;;4973645;28;20453;-75
2021/05/13 09:30:06;;;;;;;0.83;0.70;;;;;;;;;;4979248;28;20450;-76
2021/05/13 09:32:33;;;;;;;1.20;1.00;;;;;;;;;;4972656;28;20433;-76
2021/05/13 09:35:06;;;;;;;1.13;0.83;;;;;;;;;;4965609;28;20504;-76
2021/05/13 09:37:42;;;;;;;3.87;1.40;;;;;;;;;;4955928;28;21015;-77
2021/05/13 09:40:09;;;;;;;1.00;1.00;;;;;;;;;;4967794;28;20525;-76
2021/05/13 09:42:35;;;;;;;1.03;1.03;;;;;;;;;;4966388;28;20433;-77
2021/05/13 09:45:01;;;;;;;2.00;0.90;;;;;;;;;;4968909;28;20450;-78
2021/05/13 09:47:28;;;;;;;0.77;0.70;;;;;;;;;;4967525;28;20950;-78
2021/05/13 09:50:06;;;;;;;1.10;1.00;;;;;;;;;;4959144;28;20447;-77
2021/05/13 09:52:46;;;;;;;1.27;1.10;;;;;;;;;;4972787;28;20425;-78
2021/05/13 09:55:14;;;;;;;0.87;0.87;;;;;;;;;;4962201;28;20500;-77
2021/05/13 09:57:41;;;;;;;9.10;1.77;;;;;;;;;;4960680;28;20504;-78
2021/05/13 10:00:07;;;;;;;2.00;0.90;;;;;;;;;;4954753;28;20437;-78
2021/05/13 10:02:35;;;;;;;2.60;1.10;;;;;;;;;;4962205;28;21291;-77
2021/05/13 10:05:02;;;;;;;0.93;0.80;;;;;;;;;;4949871;28;20439;-80
2021/05/13 10:07:28;;;;;;;2.30;1.33;;;;;;;;;;4964507;28;20530;-78
2021/05/13 10:09:54;;;;;;;1.57;0.80;;;;;;;;;;4941765;28;20569;-78
2021/05/13 10:12:21;;;;;;;0.90;0.90;;;;;;;;;;4960824;28;20477;-77
2021/05/13 10:14:50;;;;;;;0.97;0.87;;;;;;;;;;4956006;28;20483;-77
2021/05/13 10:17:17;;;;;;;1.50;1.10;;;;;;;;;;4957786;28;20474;-78
2021/05/13 10:19:47;;;;;;;1.10;0.90;;;;;;;;;;4955085;28;26261;-77
2021/05/13 10:22:14;;;;;;;1.73;1.00;;;;;;;;;;4967238;28;20520;-77
2021/05/13 10:24:41;;;;;;;4.20;0.90;;;;;;;;;;4964486;28;20485;-77
2021/05/13 10:27:17;;;;;;;1.90;0.70;;;;;;;;;;4953269;28;20442;-77
2021/05/13 10:29:44;;;;;;;1.57;0.70;;;;;;;;;;4963095;28;20469;-77
2021/05/13 10:32:19;;;;;;;0.53;0.50;;;;;;;;;;4963175;28;21043;-77
2021/05/13 10:34:45;;;;;;;1.90;1.50;;;;;;;;;;4956225;28;20445;-78
2021/05/13 10:37:12;;;;;;;1.07;1.00;;;;;;;;;;4963751;28;20465;-78
2021/05/13 10:39:58;;;;;;;1.13;0.50;;;;;;;;;;4954387;28;20426;-78
2021/05/13 10:42:31;;;;;;;0.70;0.70;;;;;;;;;;4964615;28;20506;-78
2021/05/13 10:44:58;;;;;;;1.17;0.97;;;;;;;;;;4959659;28;20437;-78
2021/05/13 10:47:28;;;;;;;1.53;0.60;;;;;;;;;;4953264;28;20438;-78
2021/05/13 10:49:54;;;;;;;1.10;0.77;;;;;;;;;;4961849;28;20441;-77
2021/05/13 10:52:34;;;;;;;1.20;1.10;;;;;;;;;;4961105;28;20963;-77
2021/05/13 10:55:00;;;;;;;0.77;0.77;;;;;;;;;;4954984;28;20438;-77
2021/05/13 10:57:26;;;;;;;1.80;0.83;;;;;;;;;;4964014;28;20478;-78
2021/05/13 11:00:08;;;;;;;0.60;0.60;;;;;;;;;;4960183;28;20532;-79
2021/05/13 11:02:37;;;;;;;1.53;0.83;;;;;;;;;;4953931;28;20472;-79
2021/05/13 11:05:23;;;;;;;0.83;0.63;;;;;;;;;;4969958;28;20599;-76
2021/05/13 11:07:49;;;;;;;0.70;0.60;;;;;;;;;;4970120;28;20490;-79
2021/05/13 11:10:15;;;;;;;0.83;0.67;;;;;;;;;;4955639;28;20435;-79
2021/05/13 11:12:42;;;;;;;0.70;0.70;;;;;;;;;;4962640;28;20580;-79
2021/05/13 11:18:01;;;;;;;0.80;0.80;;;;;;;;;;4964881;28;20462;-78
2021/05/13 11:20:39;;;;;;;1.87;0.73;;;;;;;;;;4967380;28;20460;-79
2021/05/13 11:23:15;;;;;;;1.50;0.60;;;;;;;;;;4969254;28;20441;-78
2021/05/13 11:25:44;;;;;;;1.03;0.60;;;;;;;;;;4966133;28;20480;-79
2021/05/13 11:28:17;;;;;;;1.67;0.90;;;;;;;;;;4971202;28;20439;-79
2021/05/13 11:30:43;;;;;;;0.50;0.50;;;;;;;;;;4975101;28;20473;-79
2021/05/13 11:33:09;;;;;;;1.37;1.23;;;;;;;;;;4967730;28;20820;-79
2021/05/13 11:35:37;;;;;;;0.80;0.80;;;;;;;;;;4957917;28;20446;-79
2021/05/13 11:38:22;;;;;;;3.80;1.10;;;;;;;;;;4963229;28;20494;-79
2021/05/13 11:40:52;;;;;;;0.80;0.73;;;;;;;;;;4955638;28;20885;-79
2021/05/13 11:43:23;;;;;;;1.70;0.60;;;;;;;;;;4957723;28;20475;-79
2021/05/13 11:45:49;;;;;;;2.90;1.40;;;;;;;;;;4970690;28;21002;-78
2021/05/13 11:48:42;;;;;;;1.40;1.13;;;;;;;;;;4963584;28;20853;-79
2021/05/13 11:51:26;;;;;;;0.77;0.77;;;;;;;;;;4949957;28;20894;-79
2021/05/13 11:53:56;;;;;;;1.00;1.00;;;;;;;;;;4954858;28;20542;-79
2021/05/13 11:56:26;;;;;;;1.33;0.73;;;;;;;;;;4954539;28;20530;-79
2021/05/13 11:58:56;;;;;;;0.90;0.80;;;;;;;;;;4947772;28;20444;-78
2021/05/13 12:01:22;;;;;;;1.07;0.90;;;;;;;;;;4954402;28;20455;-77
2021/05/13 12:03:50;;;;;;;2.00;1.03;;;;;;;;;;4961705;28;20501;-77
2021/05/13 12:06:16;;;;;;;1.33;1.03;;;;;;;;;;4951630;28;20450;-77
2021/05/13 12:08:42;;;;;;;0.83;0.83;;;;;;;;;;4954363;28;20439;-77
2021/05/13 12:11:30;;;;;;;4.30;1.10;;;;;;;;;;4957612;28;20458;-77
2021/05/13 12:13:59;;;;;;;0.70;0.70;;;;;;;;;;4939068;28;20441;-77
2021/05/13 12:16:27;;;;;;;1.20;0.87;;;;;;;;;;4959262;28;20461;-77
2021/05/13 12:18:54;;;;;;;0.90;0.90;;;;;;;;;;4947604;28;20480;-77
2021/05/13 12:21:20;;;;;;;1.10;0.80;;;;;;;;;;4953657;28;20474;-77
2021/05/13 12:23:47;;;;;;;1.00;0.80;;;;;;;;;;4951011;28;20442;-77
2021/05/13 12:26:19;;;;;;;0.80;0.80;;;;;;;;;;4958561;28;21003;-77
2021/05/13 12:28:45;;;;;;;2.00;0.80;;;;;;;;;;4961494;28;20447;-77
2021/05/13 12:31:23;;;;;;;1.77;1.20;;;;;;;;;;4954945;28;20509;-77
2021/05/13 12:33:49;;;;;;;0.93;0.93;;;;;;;;;;4943039;28;20442;-77
2021/05/13 12:36:15;;;;;;;0.90;0.90;;;;;;;;;;4962551;28;20548;-77
2021/05/13 12:38:42;;;;;;;2.10;1.00;;;;;;;;;;4957151;28;20886;-77
2021/05/13 12:41:09;;;;;;;0.67;0.67;;;;;;;;;;4957375;28;20514;-76
2021/05/13 12:43:35;;;;;;;1.33;0.60;;;;;;;;;;4978156;28;20533;-77
2021/05/13 12:46:01;;;;;;;1.80;0.70;;;;;;;;;;4970219;28;20436;-77
2021/05/13 12:48:29;;;;;;;0.70;0.70;;;;;;;;;;4958776;28;21115;-77
2021/05/13 12:50:59;;;;;;;0.83;0.83;;;;;;;;;;4957017;28;20469;-75
2021/05/13 12:53:25;;;;;;;1.57;0.93;;;;;;;;;;4952845;28;20544;-76
2021/05/13 12:55:52;;;;;;;1.13;0.90;;;;;;;;;;4954063;28;20961;-76
2021/05/13 12:58:22;;;;;;;0.70;0.70;;;;;;;;;;4967522;28;20437;-75
2021/05/13 13:01:01;;;;;;;0.70;0.60;;;;;;;;;;4957287;28;20450;-76
2021/05/13 13:03:31;;;;;;;0.70;0.70;;;;;;;;;;4971691;28;20512;-75
2021/05/13 13:06:10;;;;;;;0.93;0.93;;;;;;;;;;4969095;28;20438;-76
2021/05/13 13:08:46;;;;;;;0.90;0.90;;;;;;;;;;4967004;28;20488;-76
2021/05/13 13:11:13;;;;;;;0.83;0.70;;;;;;;;;;4962990;28;20460;-75
2021/05/13 13:13:45;;;;;;;0.80;0.80;;;;;;;;;;4967715;28;20805;-76
2021/05/13 13:16:20;;;;;;;0.73;0.73;;;;;;;;;;4955073;28;20461;-75
2021/05/13 13:18:46;;;;;;;0.60;0.60;;;;;;;;;;4970479;28;20436;-76
2021/05/13 13:21:16;;;;;;;0.50;0.50;;;;;;;;;;4951622;28;20450;-75
2021/05/13 13:23:42;;;;;;;0.63;0.63;;;;;;;;;;4949771;28;20925;-75
2021/05/13 13:26:10;;;;;;;0.70;0.60;;;;;;;;;;4955909;28;20486;-76
2021/05/13 13:28:42;;;;;;;0.60;0.60;;;;;;;;;;4969682;28;20434;-75
2021/05/13 13:31:17;;;;;;;0.80;0.80;;;;;;;;;;4950969;28;20534;-76
2021/05/13 13:33:52;;;;;;;0.80;0.80;;;;;;;;;;4952364;28;20513;-76
2021/05/13 13:36:19;;;;;;;0.60;0.60;;;;;;;;;;4961284;28;20491;-76
2021/05/13 13:38:45;;;;;;;1.90;1.20;;;;;;;;;;4961796;28;20925;-75
2021/05/13 13:41:11;;;;;;;2.80;1.40;;;;;;;;;;4954505;28;20461;-76
2021/05/13 13:43:37;;;;;;;0.80;0.80;;;;;;;;;;4953759;28;20441;-75
2021/05/13 13:46:03;;;;;;;1.27;1.17;;;;;;;;;;4963334;28;20438;-75
2021/05/13 13:48:29;;;;;;;1.17;0.90;;;;;;;;;;4953249;28;20474;-76
2021/05/13 13:51:02;;;;;;;1.10;0.90;;;;;;;;;;4963848;28;20458;-76
2021/05/13 13:53:30;;;;;;;1.27;1.20;;;;;;;;;;4969569;28;20438;-76
2021/05/13 13:55:57;;;;;;;1.47;1.37;;;;;;;;;;4969229;28;20457;-76
2021/05/13 13:58:23;;;;;;;1.10;0.90;;;;;;;;;;4954153;28;20543;-75
2021/05/13 14:00:50;;;;;;;2.50;1.27;;;;;;;;;;4951007;28;20520;-76
2021/05/13 14:03:16;;;;;;;0.87;0.70;;;;;;;;;;4957554;28;21129;-73
2021/05/13 14:05:42;;;;;;;0.60;0.60;;;;;;;;;;4965889;28;20430;-73
2021/05/13 14:08:08;;;;;;;0.73;0.73;;;;;;;;;;4967270;28;20425;-77
2021/05/13 14:10:36;;;;;;;1.00;0.90;;;;;;;;;;4951750;28;20457;-74
2021/05/13 14:13:02;;;;;;;1.20;1.10;;;;;;;;;;4964969;28;20430;-74
2021/05/13 14:15:28;;;;;;;1.53;1.27;;;;;;;;;;4960410;28;20952;-74
2021/05/13 14:17:54;;;;;;;1.57;1.47;;;;;;;;;;4954063;28;20612;-74
2021/05/13 14:20:22;;;;;;;1.80;1.27;;;;;;;;;;4970090;28;20480;-74
2021/05/13 14:22:48;;;;;;;1.10;1.00;;;;;;;;;;4970342;28;20913;-74
2021/05/13 14:25:15;;;;;;;1.63;1.50;;;;;;;;;;4958305;28;20466;-74
2021/05/13 14:27:41;;;;;;;1.73;1.33;;;;;;;;;;4964836;28;20433;-74
2021/05/13 14:30:08;;;;;;;1.10;1.07;;;;;;;;;;4969974;28;20437;-74
2021/05/13 14:32:34;;;;;;;1.27;1.10;;;;;;;;;;4960081;28;20859;-74
2021/05/13 14:35:00;;;;;;;1.10;0.93;;;;;;;;;;4955331;28;20457;-74
2021/05/13 14:37:26;;;;;;;1.37;1.27;;;;;;;;;;4959781;28;20509;-74
2021/05/13 14:39:52;;;;;;;1.37;1.27;;;;;;;;;;4953848;28;20445;-74
2021/05/13 14:42:19;;;;;;;1.97;1.87;;;;;;;;;;4958768;28;20462;-74
2021/05/13 14:44:44;;;;;;;2.20;1.33;;;;;;;;;;4954600;29;20937;-74
2021/05/13 14:47:11;;;;;;;1.60;1.50;;;;;;;;;;4963513;28;20437;-74
2021/05/13 14:49:37;;;;;;;1.20;1.07;;;;;;;;;;4971224;28;20959;-74
2021/05/13 14:52:04;;;;;;;0.90;0.90;;;;;;;;;;4968490;28;21276;-74
2021/05/13 14:54:31;;;;;;;0.90;0.90;;;;;;;;;;4970664;28;20442;-74
2021/05/13 14:56:59;;;;;;;4.10;1.20;;;;;;;;;;4963586;28;20458;-74
2021/05/13 14:59:25;;;;;;;1.50;1.40;;;;;;;;;;4965788;28;20540;-74